sensor_id;sensor_type;location;lat;lon;timestamp;P1;durP1;ratioP1;P2;durP2;ratioP2
59856;SDS011;45733;52.668;6.860;2023-03-18T00:01:13;0.55;;;0.55;;
59856;SDS011;45733;52.668;6.860;2023-03-18T00:03:38;0.57;;;0.57;;
59856;SDS011;45733;52.668;6.860;2023-03-18T00:06:11;0.60;;;0.60;;
59856;SDS011;45733;52.668;6.860;2023-03-18T00:08:40;0.50;;;0.50;;
59856;SDS011;45733;52.668;6.860;2023-03-18T00:11:07;0.50;;;0.50;;
59856;SDS011;45733;52.668;6.860;2023-03-18T00:13:35;0.50;;;0.50;;
59856;SDS011;45733;52.668;6.860;2023-03-18T00:16:02;0.50;;;0.50;;
59856;SDS011;45733;52.668;6.860;2023-03-18T00:18:29;0.50;;;0.50;;
59856;SDS011;45733;52.668;6.860;2023-03-18T00:20:57;0.50;;;0.50;;
59856;SDS011;45733;52.668;6.860;2023-03-18T00:23:25;0.50;;;0.50;;
59856;SDS011;45733;52.668;6.860;2023-03-18T00:25:52;0.50;;;0.50;;
59856;SDS011;45733;52.668;6.860;2023-03-18T00:28:20;0.60;;;0.60;;
59856;SDS011;45733;52.668;6.860;2023-03-18T00:30:47;0.50;;;0.50;;
59856;SDS011;45733;52.668;6.860;2023-03-18T00:33:14;0.50;;;0.50;;
59856;SDS011;45733;52.668;6.860;2023-03-18T00:35:40;0.52;;;0.52;;
59856;SDS011;45733;52.668;6.860;2023-03-18T00:38:07;0.50;;;0.50;;
59856;SDS011;45733;52.668;6.860;2023-03-18T00:40:34;0.60;;;0.60;;
59856;SDS011;45733;52.668;6.860;2023-03-18T00:43:20;0.60;;;0.60;;
59856;SDS011;45733;52.668;6.860;2023-03-18T00:45:53;0.50;;;0.50;;
59856;SDS011;45733;52.668;6.860;2023-03-18T00:48:20;0.50;;;0.50;;
59856;SDS011;45733;52.668;6.860;2023-03-18T00:50:48;0.50;;;0.50;;
59856;SDS011;45733;52.668;6.860;2023-03-18T00:53:14;0.60;;;0.60;;
59856;SDS011;45733;52.668;6.860;2023-03-18T00:55:41;0.60;;;0.60;;
59856;SDS011;45733;52.668;6.860;2023-03-18T00:58:07;0.60;;;0.60;;
59856;SDS011;45733;52.668;6.860;2023-03-18T01:00:34;0.50;;;0.50;;
59856;SDS011;45733;52.668;6.860;2023-03-18T01:03:05;0.50;;;0.50;;
59856;SDS011;45733;52.668;6.860;2023-03-18T01:05:32;0.60;;;0.60;;
59856;SDS011;45733;52.668;6.860;2023-03-18T01:08:00;0.57;;;0.57;;
59856;SDS011;45733;52.668;6.860;2023-03-18T01:10:27;0.60;;;0.60;;
59856;SDS011;45733;52.668;6.860;2023-03-18T01:12:54;0.55;;;0.55;;
59856;SDS011;45733;52.668;6.860;2023-03-18T01:15:20;0.60;;;0.60;;
59856;SDS011;45733;52.668;6.860;2023-03-18T01:17:47;0.60;;;0.60;;
59856;SDS011;45733;52.668;6.860;2023-03-18T01:20:14;0.60;;;0.60;;
59856;SDS011;45733;52.668;6.860;2023-03-18T01:22:42;0.50;;;0.50;;
59856;SDS011;45733;52.668;6.860;2023-03-18T01:25:09;0.60;;;0.60;;
59856;SDS011;45733;52.668;6.860;2023-03-18T01:27:36;0.60;;;0.60;;
59856;SDS011;45733;52.668;6.860;2023-03-18T01:30:03;0.60;;;0.60;;
59856;SDS011;45733;52.668;6.860;2023-03-18T01:32:30;0.60;;;0.60;;
59856;SDS011;45733;52.668;6.860;2023-03-18T01:34:56;0.60;;;0.60;;
59856;SDS011;45733;52.668;6.860;2023-03-18T01:37:23;0.50;;;0.50;;
59856;SDS011;45733;52.668;6.860;2023-03-18T01:39:49;0.52;;;0.52;;
59856;SDS011;45733;52.668;6.860;2023-03-18T01:42:15;0.60;;;0.60;;
59856;SDS011;45733;52.668;6.860;2023-03-18T01:44:42;0.60;;;0.60;;
59856;SDS011;45733;52.668;6.860;2023-03-18T01:47:10;0.60;;;0.60;;
59856;SDS011;45733;52.668;6.860;2023-03-18T01:49:46;0.52;;;0.52;;
59856;SDS011;45733;52.668;6.860;2023-03-18T01:52:16;0.50;;;0.50;;
59856;SDS011;45733;52.668;6.860;2023-03-18T01:54:56;0.50;;;0.50;;
59856;SDS011;45733;52.668;6.860;2023-03-18T01:57:24;0.60;;;0.60;;
59856;SDS011;45733;52.668;6.860;2023-03-18T01:59:51;0.60;;;0.60;;
59856;SDS011;45733;52.668;6.860;2023-03-18T02:02:19;0.60;;;0.60;;
59856;SDS011;45733;52.668;6.860;2023-03-18T02:04:49;0.60;;;0.60;;
59856;SDS011;45733;52.668;6.860;2023-03-18T02:07:26;0.60;;;0.60;;
59856;SDS011;45733;52.668;6.860;2023-03-18T02:09:55;0.60;;;0.60;;
59856;SDS011;45733;52.668;6.860;2023-03-18T02:12:23;0.60;;;0.60;;
59856;SDS011;45733;52.668;6.860;2023-03-18T02:14:53;0.60;;;0.60;;
59856;SDS011;45733;52.668;6.860;2023-03-18T02:17:25;0.60;;;0.60;;
59856;SDS011;45733;52.668;6.860;2023-03-18T02:22:51;0.50;;;0.50;;
59856;SDS011;45733;52.668;6.860;2023-03-18T02:28:28;0.60;;;0.60;;
59856;SDS011;45733;52.668;6.860;2023-03-18T02:30:56;0.50;;;0.50;;
59856;SDS011;45733;52.668;6.860;2023-03-18T02:33:25;0.60;;;0.60;;
59856;SDS011;45733;52.668;6.860;2023-03-18T02:36:03;0.60;;;0.60;;
59856;SDS011;45733;52.668;6.860;2023-03-18T02:38:33;0.60;;;0.60;;
59856;SDS011;45733;52.668;6.860;2023-03-18T02:40:59;0.60;;;0.60;;
59856;SDS011;45733;52.668;6.860;2023-03-18T02:48:22;0.50;;;0.50;;
59856;SDS011;45733;52.668;6.860;2023-03-18T02:50:53;0.60;;;0.60;;
59856;SDS011;45733;52.668;6.860;2023-03-18T02:53:19;0.60;;;0.60;;
59856;SDS011;45733;52.668;6.860;2023-03-18T02:55:45;0.55;;;0.55;;
59856;SDS011;45733;52.668;6.860;2023-03-18T02:58:11;0.60;;;0.60;;
59856;SDS011;45733;52.668;6.860;2023-03-18T03:00:37;0.60;;;0.60;;
59856;SDS011;45733;52.668;6.860;2023-03-18T03:03:03;0.52;;;0.52;;
59856;SDS011;45733;52.668;6.860;2023-03-18T03:05:29;0.50;;;0.50;;
59856;SDS011;45733;52.668;6.860;2023-03-18T03:07:55;0.60;;;0.60;;
59856;SDS011;45733;52.668;6.860;2023-03-18T03:10:21;0.50;;;0.50;;
59856;SDS011;45733;52.668;6.860;2023-03-18T03:12:47;0.50;;;0.50;;
59856;SDS011;45733;52.668;6.860;2023-03-18T03:15:12;0.50;;;0.50;;
59856;SDS011;45733;52.668;6.860;2023-03-18T03:17:38;0.50;;;0.50;;
59856;SDS011;45733;52.668;6.860;2023-03-18T03:20:06;0.60;;;0.60;;
59856;SDS011;45733;52.668;6.860;2023-03-18T03:22:33;0.60;;;0.60;;
59856;SDS011;45733;52.668;6.860;2023-03-18T03:24:59;0.60;;;0.60;;
59856;SDS011;45733;52.668;6.860;2023-03-18T03:27:26;0.60;;;0.60;;
59856;SDS011;45733;52.668;6.860;2023-03-18T03:29:52;0.60;;;0.60;;
59856;SDS011;45733;52.668;6.860;2023-03-18T03:32:18;0.60;;;0.60;;
59856;SDS011;45733;52.668;6.860;2023-03-18T03:34:44;0.60;;;0.60;;
59856;SDS011;45733;52.668;6.860;2023-03-18T03:37:12;0.50;;;0.50;;
59856;SDS011;45733;52.668;6.860;2023-03-18T03:39:38;0.60;;;0.60;;
59856;SDS011;45733;52.668;6.860;2023-03-18T03:42:04;0.60;;;0.60;;
59856;SDS011;45733;52.668;6.860;2023-03-18T03:44:30;0.60;;;0.60;;
59856;SDS011;45733;52.668;6.860;2023-03-18T03:46:55;0.60;;;0.60;;
59856;SDS011;45733;52.668;6.860;2023-03-18T03:49:21;0.60;;;0.60;;
59856;SDS011;45733;52.668;6.860;2023-03-18T03:51:47;0.60;;;0.60;;
59856;SDS011;45733;52.668;6.860;2023-03-18T03:54:13;0.60;;;0.60;;
59856;SDS011;45733;52.668;6.860;2023-03-18T03:56:39;0.60;;;0.60;;
59856;SDS011;45733;52.668;6.860;2023-03-18T03:59:06;0.50;;;0.50;;
59856;SDS011;45733;52.668;6.860;2023-03-18T04:01:32;0.52;;;0.52;;
59856;SDS011;45733;52.668;6.860;2023-03-18T04:03:58;0.60;;;0.60;;
59856;SDS011;45733;52.668;6.860;2023-03-18T04:06:26;0.50;;;0.50;;
59856;SDS011;45733;52.668;6.860;2023-03-18T04:08:53;0.60;;;0.60;;
59856;SDS011;45733;52.668;6.860;2023-03-18T04:11:19;0.50;;;0.50;;
59856;SDS011;45733;52.668;6.860;2023-03-18T04:13:45;0.60;;;0.60;;
59856;SDS011;45733;52.668;6.860;2023-03-18T04:16:11;0.60;;;0.60;;
59856;SDS011;45733;52.668;6.860;2023-03-18T04:18:38;0.60;;;0.60;;
59856;SDS011;45733;52.668;6.860;2023-03-18T04:21:04;0.50;;;0.50;;
59856;SDS011;45733;52.668;6.860;2023-03-18T04:23:30;0.50;;;0.50;;
59856;SDS011;45733;52.668;6.860;2023-03-18T04:25:57;0.50;;;0.50;;
59856;SDS011;45733;52.668;6.860;2023-03-18T04:28:23;0.60;;;0.60;;
59856;SDS011;45733;52.668;6.860;2023-03-18T04:30:49;0.50;;;0.50;;
59856;SDS011;45733;52.668;6.860;2023-03-18T04:33:16;0.60;;;0.60;;
59856;SDS011;45733;52.668;6.860;2023-03-18T04:35:43;0.57;;;0.57;;
59856;SDS011;45733;52.668;6.860;2023-03-18T04:38:09;0.60;;;0.60;;
59856;SDS011;45733;52.668;6.860;2023-03-18T04:40:36;0.60;;;0.60;;
59856;SDS011;45733;52.668;6.860;2023-03-18T04:43:02;0.60;;;0.60;;
59856;SDS011;45733;52.668;6.860;2023-03-18T04:45:28;0.60;;;0.60;;
59856;SDS011;45733;52.668;6.860;2023-03-18T04:47:54;0.60;;;0.60;;
59856;SDS011;45733;52.668;6.860;2023-03-18T04:50:20;0.60;;;0.60;;
59856;SDS011;45733;52.668;6.860;2023-03-18T04:52:46;0.60;;;0.60;;
59856;SDS011;45733;52.668;6.860;2023-03-18T04:55:12;0.60;;;0.60;;
59856;SDS011;45733;52.668;6.860;2023-03-18T04:57:40;0.60;;;0.60;;
59856;SDS011;45733;52.668;6.860;2023-03-18T05:00:09;0.60;;;0.60;;
59856;SDS011;45733;52.668;6.860;2023-03-18T05:02:38;0.60;;;0.60;;
59856;SDS011;45733;52.668;6.860;2023-03-18T05:05:04;0.65;;;0.65;;
59856;SDS011;45733;52.668;6.860;2023-03-18T05:07:30;0.60;;;0.60;;
59856;SDS011;45733;52.668;6.860;2023-03-18T05:09:56;0.60;;;0.60;;
59856;SDS011;45733;52.668;6.860;2023-03-18T05:12:22;0.60;;;0.60;;
59856;SDS011;45733;52.668;6.860;2023-03-18T05:14:49;0.68;;;0.68;;
59856;SDS011;45733;52.668;6.860;2023-03-18T05:17:15;0.70;;;0.70;;
59856;SDS011;45733;52.668;6.860;2023-03-18T05:19:42;0.70;;;0.70;;
59856;SDS011;45733;52.668;6.860;2023-03-18T05:22:12;0.70;;;0.70;;
59856;SDS011;45733;52.668;6.860;2023-03-18T05:24:39;0.70;;;0.70;;
59856;SDS011;45733;52.668;6.860;2023-03-18T05:27:05;0.70;;;0.70;;
59856;SDS011;45733;52.668;6.860;2023-03-18T05:29:32;0.73;;;0.73;;
59856;SDS011;45733;52.668;6.860;2023-03-18T05:31:58;0.80;;;0.80;;
59856;SDS011;45733;52.668;6.860;2023-03-18T05:34:23;0.70;;;0.70;;
59856;SDS011;45733;52.668;6.860;2023-03-18T05:36:50;0.70;;;0.70;;
59856;SDS011;45733;52.668;6.860;2023-03-18T05:39:16;0.70;;;0.70;;
59856;SDS011;45733;52.668;6.860;2023-03-18T05:41:42;0.70;;;0.70;;
59856;SDS011;45733;52.668;6.860;2023-03-18T05:44:07;0.70;;;0.70;;
59856;SDS011;45733;52.668;6.860;2023-03-18T05:46:33;0.70;;;0.70;;
59856;SDS011;45733;52.668;6.860;2023-03-18T05:48:59;0.70;;;0.70;;
59856;SDS011;45733;52.668;6.860;2023-03-18T05:51:25;0.70;;;0.70;;
59856;SDS011;45733;52.668;6.860;2023-03-18T05:53:52;0.70;;;0.70;;
59856;SDS011;45733;52.668;6.860;2023-03-18T05:56:17;0.70;;;0.70;;
59856;SDS011;45733;52.668;6.860;2023-03-18T05:58:43;0.70;;;0.70;;
59856;SDS011;45733;52.668;6.860;2023-03-18T06:01:09;0.70;;;0.70;;
59856;SDS011;45733;52.668;6.860;2023-03-18T06:03:35;0.70;;;0.70;;
59856;SDS011;45733;52.668;6.860;2023-03-18T06:06:01;0.73;;;0.73;;
59856;SDS011;45733;52.668;6.860;2023-03-18T06:08:27;0.70;;;0.70;;
59856;SDS011;45733;52.668;6.860;2023-03-18T06:10:53;0.80;;;0.80;;
59856;SDS011;45733;52.668;6.860;2023-03-18T06:13:19;0.70;;;0.70;;
59856;SDS011;45733;52.668;6.860;2023-03-18T06:15:45;0.70;;;0.70;;
59856;SDS011;45733;52.668;6.860;2023-03-18T06:18:12;0.80;;;0.80;;
59856;SDS011;45733;52.668;6.860;2023-03-18T06:20:38;0.70;;;0.70;;
59856;SDS011;45733;52.668;6.860;2023-03-18T06:23:05;0.70;;;0.70;;
59856;SDS011;45733;52.668;6.860;2023-03-18T06:25:31;0.70;;;0.70;;
59856;SDS011;45733;52.668;6.860;2023-03-18T06:27:56;0.70;;;0.70;;
59856;SDS011;45733;52.668;6.860;2023-03-18T06:30:22;0.80;;;0.80;;
59856;SDS011;45733;52.668;6.860;2023-03-18T06:32:48;0.80;;;0.80;;
59856;SDS011;45733;52.668;6.860;2023-03-18T06:35:14;0.80;;;0.80;;
59856;SDS011;45733;52.668;6.860;2023-03-18T06:37:42;0.73;;;0.73;;
59856;SDS011;45733;52.668;6.860;2023-03-18T06:40:08;0.70;;;0.70;;
59856;SDS011;45733;52.668;6.860;2023-03-18T06:42:34;0.80;;;0.80;;
59856;SDS011;45733;52.668;6.860;2023-03-18T06:45:00;0.80;;;0.80;;
59856;SDS011;45733;52.668;6.860;2023-03-18T06:47:26;0.80;;;0.80;;
59856;SDS011;45733;52.668;6.860;2023-03-18T06:49:52;0.80;;;0.80;;
59856;SDS011;45733;52.668;6.860;2023-03-18T06:52:18;0.80;;;0.80;;
59856;SDS011;45733;52.668;6.860;2023-03-18T06:54:44;0.80;;;0.80;;
59856;SDS011;45733;52.668;6.860;2023-03-18T06:57:10;0.80;;;0.80;;
59856;SDS011;45733;52.668;6.860;2023-03-18T06:59:36;0.80;;;0.80;;
59856;SDS011;45733;52.668;6.860;2023-03-18T07:02:03;0.80;;;0.80;;
59856;SDS011;45733;52.668;6.860;2023-03-18T07:04:30;0.90;;;0.90;;
59856;SDS011;45733;52.668;6.860;2023-03-18T07:06:57;0.90;;;0.90;;
59856;SDS011;45733;52.668;6.860;2023-03-18T07:09:24;0.90;;;0.90;;
59856;SDS011;45733;52.668;6.860;2023-03-18T07:11:50;0.90;;;0.90;;
59856;SDS011;45733;52.668;6.860;2023-03-18T07:14:17;0.90;;;0.90;;
59856;SDS011;45733;52.668;6.860;2023-03-18T07:16:45;1.00;;;1.00;;
59856;SDS011;45733;52.668;6.860;2023-03-18T07:19:11;0.95;;;0.95;;
59856;SDS011;45733;52.668;6.860;2023-03-18T07:21:36;0.95;;;0.95;;
59856;SDS011;45733;52.668;6.860;2023-03-18T07:24:03;1.00;;;1.00;;
59856;SDS011;45733;52.668;6.860;2023-03-18T07:26:29;1.00;;;1.00;;
59856;SDS011;45733;52.668;6.860;2023-03-18T07:28:55;1.00;;;1.00;;
59856;SDS011;45733;52.668;6.860;2023-03-18T07:31:21;1.00;;;1.00;;
59856;SDS011;45733;52.668;6.860;2023-03-18T07:33:47;1.10;;;1.10;;
59856;SDS011;45733;52.668;6.860;2023-03-18T07:36:13;1.05;;;1.05;;
59856;SDS011;45733;52.668;6.860;2023-03-18T07:38:39;1.00;;;1.00;;
59856;SDS011;45733;52.668;6.860;2023-03-18T07:41:05;1.10;;;1.10;;
59856;SDS011;45733;52.668;6.860;2023-03-18T07:43:31;1.05;;;1.05;;
59856;SDS011;45733;52.668;6.860;2023-03-18T07:45:58;1.10;;;1.10;;
59856;SDS011;45733;52.668;6.860;2023-03-18T07:48:23;1.10;;;1.10;;
59856;SDS011;45733;52.668;6.860;2023-03-18T07:50:49;1.00;;;1.00;;
59856;SDS011;45733;52.668;6.860;2023-03-18T07:53:15;1.08;;;1.08;;
59856;SDS011;45733;52.668;6.860;2023-03-18T07:55:41;1.08;;;1.08;;
59856;SDS011;45733;52.668;6.860;2023-03-18T07:58:06;1.10;;;1.10;;
59856;SDS011;45733;52.668;6.860;2023-03-18T08:00:33;1.10;;;1.10;;
59856;SDS011;45733;52.668;6.860;2023-03-18T08:03:00;1.20;;;1.20;;
59856;SDS011;45733;52.668;6.860;2023-03-18T08:05:26;1.20;;;1.20;;
59856;SDS011;45733;52.668;6.860;2023-03-18T08:07:52;1.02;;;1.02;;
59856;SDS011;45733;52.668;6.860;2023-03-18T08:10:18;1.15;;;1.15;;
59856;SDS011;45733;52.668;6.860;2023-03-18T08:12:44;1.15;;;1.15;;
59856;SDS011;45733;52.668;6.860;2023-03-18T08:15:10;1.30;;;1.30;;
59856;SDS011;45733;52.668;6.860;2023-03-18T08:17:37;1.20;;;1.20;;
59856;SDS011;45733;52.668;6.860;2023-03-18T08:20:03;1.23;;;1.23;;
59856;SDS011;45733;52.668;6.860;2023-03-18T08:22:30;1.27;;;1.27;;
59856;SDS011;45733;52.668;6.860;2023-03-18T08:24:56;1.23;;;1.23;;
59856;SDS011;45733;52.668;6.860;2023-03-18T08:27:22;1.23;;;1.23;;
59856;SDS011;45733;52.668;6.860;2023-03-18T08:29:48;1.20;;;1.20;;
59856;SDS011;45733;52.668;6.860;2023-03-18T08:32:14;1.27;;;1.27;;
59856;SDS011;45733;52.668;6.860;2023-03-18T08:34:41;1.27;;;1.27;;
59856;SDS011;45733;52.668;6.860;2023-03-18T08:37:07;1.33;;;1.33;;
59856;SDS011;45733;52.668;6.860;2023-03-18T08:39:33;1.30;;;1.30;;
59856;SDS011;45733;52.668;6.860;2023-03-18T08:42:01;1.30;;;1.30;;
59856;SDS011;45733;52.668;6.860;2023-03-18T08:44:28;1.23;;;1.23;;
59856;SDS011;45733;52.668;6.860;2023-03-18T08:46:55;1.35;;;1.33;;
59856;SDS011;45733;52.668;6.860;2023-03-18T08:49:22;1.27;;;1.27;;
59856;SDS011;45733;52.668;6.860;2023-03-18T08:51:48;1.27;;;1.27;;
59856;SDS011;45733;52.668;6.860;2023-03-18T08:54:15;1.27;;;1.27;;
59856;SDS011;45733;52.668;6.860;2023-03-18T08:56:40;1.30;;;1.30;;
59856;SDS011;45733;52.668;6.860;2023-03-18T08:59:06;1.27;;;1.27;;
59856;SDS011;45733;52.668;6.860;2023-03-18T09:01:33;1.30;;;1.30;;
59856;SDS011;45733;52.668;6.860;2023-03-18T09:03:58;1.35;;;1.33;;
59856;SDS011;45733;52.668;6.860;2023-03-18T09:06:24;1.27;;;1.27;;
59856;SDS011;45733;52.668;6.860;2023-03-18T09:08:51;1.30;;;1.30;;
59856;SDS011;45733;52.668;6.860;2023-03-18T09:11:17;1.27;;;1.27;;
59856;SDS011;45733;52.668;6.860;2023-03-18T09:13:43;1.20;;;1.20;;
59856;SDS011;45733;52.668;6.860;2023-03-18T09:16:09;1.20;;;1.20;;
59856;SDS011;45733;52.668;6.860;2023-03-18T09:18:35;1.15;;;1.15;;
59856;SDS011;45733;52.668;6.860;2023-03-18T09:21:01;1.23;;;1.23;;
59856;SDS011;45733;52.668;6.860;2023-03-18T09:23:29;1.27;;;1.27;;
59856;SDS011;45733;52.668;6.860;2023-03-18T09:25:55;1.23;;;1.23;;
59856;SDS011;45733;52.668;6.860;2023-03-18T09:28:22;1.15;;;1.15;;
59856;SDS011;45733;52.668;6.860;2023-03-18T09:30:48;1.23;;;1.23;;
59856;SDS011;45733;52.668;6.860;2023-03-18T09:33:15;1.35;;;1.33;;
59856;SDS011;45733;52.668;6.860;2023-03-18T09:35:40;1.35;;;1.33;;
59856;SDS011;45733;52.668;6.860;2023-03-18T09:38:06;1.33;;;1.33;;
59856;SDS011;45733;52.668;6.860;2023-03-18T09:40:35;1.25;;;1.25;;
59856;SDS011;45733;52.668;6.860;2023-03-18T09:44:13;1.33;;;1.30;;
59856;SDS011;45733;52.668;6.860;2023-03-18T09:54:53;1.27;;;1.27;;
59856;SDS011;45733;52.668;6.860;2023-03-18T09:58:00;1.17;;;1.17;;
59856;SDS011;45733;52.668;6.860;2023-03-18T10:05:52;1.25;;;1.25;;
59856;SDS011;45733;52.668;6.860;2023-03-18T10:10:55;2.20;;;2.10;;
59856;SDS011;45733;52.668;6.860;2023-03-18T10:13:31;1.25;;;1.25;;
59856;SDS011;45733;52.668;6.860;2023-03-18T10:18:35;1.30;;;1.30;;
59856;SDS011;45733;52.668;6.860;2023-03-18T10:23:37;1.25;;;1.25;;
59856;SDS011;45733;52.668;6.860;2023-03-18T10:27:13;1.25;;;1.25;;
59856;SDS011;45733;52.668;6.860;2023-03-18T10:32:22;1.45;;;1.38;;
59856;SDS011;45733;52.668;6.860;2023-03-18T10:38:34;1.38;;;1.35;;
59856;SDS011;45733;52.668;6.860;2023-03-18T10:40:43;1.30;;;1.30;;
59856;SDS011;45733;52.668;6.860;2023-03-18T10:43:15;1.33;;;1.33;;
59856;SDS011;45733;52.668;6.860;2023-03-18T10:46:13;1.30;;;1.27;;
59856;SDS011;45733;52.668;6.860;2023-03-18T10:48:57;1.35;;;1.33;;
59856;SDS011;45733;52.668;6.860;2023-03-18T10:56:56;1.23;;;1.23;;
59856;SDS011;45733;52.668;6.860;2023-03-18T10:59:22;1.25;;;1.25;;
59856;SDS011;45733;52.668;6.860;2023-03-18T11:01:55;1.20;;;1.20;;
59856;SDS011;45733;52.668;6.860;2023-03-18T11:04:26;1.27;;;1.27;;
59856;SDS011;45733;52.668;6.860;2023-03-18T11:07:00;1.10;;;1.10;;
59856;SDS011;45733;52.668;6.860;2023-03-18T11:09:35;1.17;;;1.17;;
59856;SDS011;45733;52.668;6.860;2023-03-18T11:12:13;1.08;;;1.08;;
59856;SDS011;45733;52.668;6.860;2023-03-18T11:14:45;1.20;;;1.20;;
59856;SDS011;45733;52.668;6.860;2023-03-18T11:19:45;1.20;;;1.20;;
59856;SDS011;45733;52.668;6.860;2023-03-18T11:22:17;1.17;;;1.17;;
59856;SDS011;45733;52.668;6.860;2023-03-18T11:25:10;1.17;;;1.17;;
59856;SDS011;45733;52.668;6.860;2023-03-18T11:27:45;1.15;;;1.15;;
59856;SDS011;45733;52.668;6.860;2023-03-18T11:30:25;1.20;;;1.20;;
59856;SDS011;45733;52.668;6.860;2023-03-18T11:32:56;1.25;;;1.25;;
59856;SDS011;45733;52.668;6.860;2023-03-18T11:38:28;1.15;;;1.15;;
59856;SDS011;45733;52.668;6.860;2023-03-18T11:44:24;1.25;;;1.25;;
59856;SDS011;45733;52.668;6.860;2023-03-18T11:46:39;1.27;;;1.27;;
59856;SDS011;45733;52.668;6.860;2023-03-18T11:49:12;1.23;;;1.23;;
59856;SDS011;45733;52.668;6.860;2023-03-18T11:59:57;1.10;;;1.10;;
59856;SDS011;45733;52.668;6.860;2023-03-18T12:17:18;1.00;;;1.00;;
59856;SDS011;45733;52.668;6.860;2023-03-18T12:19:55;0.90;;;0.90;;
59856;SDS011;45733;52.668;6.860;2023-03-18T12:34:00;0.95;;;0.95;;
59856;SDS011;45733;52.668;6.860;2023-03-18T12:42:10;0.98;;;0.98;;
59856;SDS011;45733;52.668;6.860;2023-03-18T12:47:35;0.98;;;0.98;;
59856;SDS011;45733;52.668;6.860;2023-03-18T12:50:18;0.95;;;0.95;;
59856;SDS011;45733;52.668;6.860;2023-03-18T12:55:38;0.90;;;0.90;;
59856;SDS011;45733;52.668;6.860;2023-03-18T12:58:09;0.93;;;0.93;;
59856;SDS011;45733;52.668;6.860;2023-03-18T13:00:44;0.88;;;0.88;;
59856;SDS011;45733;52.668;6.860;2023-03-18T13:03:34;0.82;;;0.82;;
59856;SDS011;45733;52.668;6.860;2023-03-18T13:14:23;0.70;;;0.70;;
59856;SDS011;45733;52.668;6.860;2023-03-18T13:16:59;0.60;;;0.60;;
59856;SDS011;45733;52.668;6.860;2023-03-18T13:19:26;0.60;;;0.60;;
59856;SDS011;45733;52.668;6.860;2023-03-18T13:22:02;0.50;;;0.50;;
59856;SDS011;45733;52.668;6.860;2023-03-18T13:24:46;0.50;;;0.50;;
59856;SDS011;45733;52.668;6.860;2023-03-18T13:32:32;0.50;;;0.50;;
59856;SDS011;45733;52.668;6.860;2023-03-18T13:38:04;0.50;;;0.50;;
59856;SDS011;45733;52.668;6.860;2023-03-18T13:43:17;0.47;;;0.47;;
59856;SDS011;45733;52.668;6.860;2023-03-18T13:45:48;0.43;;;0.43;;
59856;SDS011;45733;52.668;6.860;2023-03-18T13:48:16;0.40;;;0.40;;
59856;SDS011;45733;52.668;6.860;2023-03-18T13:50:52;0.40;;;0.40;;
59856;SDS011;45733;52.668;6.860;2023-03-18T14:07:11;0.40;;;0.40;;
59856;SDS011;45733;52.668;6.860;2023-03-18T14:20:14;0.50;;;0.50;;
59856;SDS011;45733;52.668;6.860;2023-03-18T14:22:48;0.50;;;0.50;;
59856;SDS011;45733;52.668;6.860;2023-03-18T14:27:49;0.50;;;0.50;;
59856;SDS011;45733;52.668;6.860;2023-03-18T14:32:57;0.50;;;0.50;;
59856;SDS011;45733;52.668;6.860;2023-03-18T14:38:01;0.50;;;0.50;;
59856;SDS011;45733;52.668;6.860;2023-03-18T14:40:40;0.50;;;0.50;;
59856;SDS011;45733;52.668;6.860;2023-03-18T14:43:13;0.50;;;0.50;;
59856;SDS011;45733;52.668;6.860;2023-03-18T14:45:49;0.50;;;0.50;;
59856;SDS011;45733;52.668;6.860;2023-03-18T14:48:18;0.50;;;0.50;;
59856;SDS011;45733;52.668;6.860;2023-03-18T14:50:51;0.50;;;0.50;;
59856;SDS011;45733;52.668;6.860;2023-03-18T14:55:56;0.50;;;0.50;;
59856;SDS011;45733;52.668;6.860;2023-03-18T14:58:23;0.57;;;0.57;;
59856;SDS011;45733;52.668;6.860;2023-03-18T15:00:55;0.50;;;0.50;;
59856;SDS011;45733;52.668;6.860;2023-03-18T15:03:33;0.50;;;0.50;;
59856;SDS011;45733;52.668;6.860;2023-03-18T15:06:02;0.50;;;0.50;;
59856;SDS011;45733;52.668;6.860;2023-03-18T15:08:31;0.50;;;0.50;;
59856;SDS011;45733;52.668;6.860;2023-03-18T15:11:01;0.50;;;0.50;;
59856;SDS011;45733;52.668;6.860;2023-03-18T15:13:29;0.50;;;0.50;;
59856;SDS011;45733;52.668;6.860;2023-03-18T15:15:55;0.50;;;0.50;;
59856;SDS011;45733;52.668;6.860;2023-03-18T15:23:37;0.50;;;0.50;;
59856;SDS011;45733;52.668;6.860;2023-03-18T15:26:07;0.50;;;0.50;;
59856;SDS011;45733;52.668;6.860;2023-03-18T15:28:48;0.50;;;0.50;;
59856;SDS011;45733;52.668;6.860;2023-03-18T15:31:28;0.50;;;0.50;;
59856;SDS011;45733;52.668;6.860;2023-03-18T15:34:38;0.50;;;0.50;;
59856;SDS011;45733;52.668;6.860;2023-03-18T15:36:51;0.50;;;0.50;;
59856;SDS011;45733;52.668;6.860;2023-03-18T15:39:31;0.50;;;0.50;;
59856;SDS011;45733;52.668;6.860;2023-03-18T15:42:00;0.50;;;0.50;;
59856;SDS011;45733;52.668;6.860;2023-03-18T15:44:36;0.50;;;0.50;;
59856;SDS011;45733;52.668;6.860;2023-03-18T15:49:58;0.50;;;0.50;;
59856;SDS011;45733;52.668;6.860;2023-03-18T15:52:33;0.50;;;0.50;;
59856;SDS011;45733;52.668;6.860;2023-03-18T15:55:19;0.50;;;0.50;;
59856;SDS011;45733;52.668;6.860;2023-03-18T15:57:57;0.57;;;0.57;;
59856;SDS011;45733;52.668;6.860;2023-03-18T16:00:23;0.50;;;0.50;;
59856;SDS011;45733;52.668;6.860;2023-03-18T16:02:49;0.50;;;0.50;;
59856;SDS011;45733;52.668;6.860;2023-03-18T16:07:43;0.50;;;0.50;;
59856;SDS011;45733;52.668;6.860;2023-03-18T16:10:09;0.50;;;0.50;;
59856;SDS011;45733;52.668;6.860;2023-03-18T16:12:35;0.50;;;0.50;;
59856;SDS011;45733;52.668;6.860;2023-03-18T16:15:04;0.50;;;0.50;;
59856;SDS011;45733;52.668;6.860;2023-03-18T16:17:31;0.50;;;0.50;;
59856;SDS011;45733;52.668;6.860;2023-03-18T16:20:00;0.50;;;0.50;;
59856;SDS011;45733;52.668;6.860;2023-03-18T16:22:28;0.50;;;0.50;;
59856;SDS011;45733;52.668;6.860;2023-03-18T16:24:54;0.50;;;0.50;;
59856;SDS011;45733;52.668;6.860;2023-03-18T16:29:52;0.50;;;0.50;;
59856;SDS011;45733;52.668;6.860;2023-03-18T16:32:17;0.50;;;0.50;;
59856;SDS011;45733;52.668;6.860;2023-03-18T16:34:43;0.50;;;0.50;;
59856;SDS011;45733;52.668;6.860;2023-03-18T16:37:20;0.50;;;0.50;;
59856;SDS011;45733;52.668;6.860;2023-03-18T16:39:49;0.50;;;0.50;;
59856;SDS011;45733;52.668;6.860;2023-03-18T16:42:15;0.47;;;0.47;;
59856;SDS011;45733;52.668;6.860;2023-03-18T16:44:42;0.50;;;0.50;;
59856;SDS011;45733;52.668;6.860;2023-03-18T16:47:20;0.50;;;0.50;;
59856;SDS011;45733;52.668;6.860;2023-03-18T16:49:49;0.50;;;0.50;;
59856;SDS011;45733;52.668;6.860;2023-03-18T16:52:15;0.50;;;0.50;;
59856;SDS011;45733;52.668;6.860;2023-03-18T16:54:42;0.50;;;0.50;;
59856;SDS011;45733;52.668;6.860;2023-03-18T16:57:12;0.50;;;0.50;;
59856;SDS011;45733;52.668;6.860;2023-03-18T16:59:41;0.50;;;0.50;;
59856;SDS011;45733;52.668;6.860;2023-03-18T17:02:33;0.50;;;0.50;;
59856;SDS011;45733;52.668;6.860;2023-03-18T17:04:58;0.50;;;0.50;;
59856;SDS011;45733;52.668;6.860;2023-03-18T17:07:25;0.50;;;0.50;;
59856;SDS011;45733;52.668;6.860;2023-03-18T17:09:52;0.50;;;0.50;;
59856;SDS011;45733;52.668;6.860;2023-03-18T17:12:18;0.50;;;0.50;;
59856;SDS011;45733;52.668;6.860;2023-03-18T17:14:48;0.50;;;0.50;;
59856;SDS011;45733;52.668;6.860;2023-03-18T17:19:45;0.50;;;0.50;;
59856;SDS011;45733;52.668;6.860;2023-03-18T17:22:18;0.50;;;0.50;;
59856;SDS011;45733;52.668;6.860;2023-03-18T17:24:46;0.50;;;0.50;;
59856;SDS011;45733;52.668;6.860;2023-03-18T17:27:31;0.50;;;0.50;;
59856;SDS011;45733;52.668;6.860;2023-03-18T17:30:01;0.50;;;0.50;;
59856;SDS011;45733;52.668;6.860;2023-03-18T17:32:26;0.50;;;0.50;;
59856;SDS011;45733;52.668;6.860;2023-03-18T17:34:52;0.50;;;0.50;;
59856;SDS011;45733;52.668;6.860;2023-03-18T17:37:18;0.50;;;0.50;;
59856;SDS011;45733;52.668;6.860;2023-03-18T17:39:45;0.50;;;0.50;;
59856;SDS011;45733;52.668;6.860;2023-03-18T17:42:32;0.50;;;0.50;;
59856;SDS011;45733;52.668;6.860;2023-03-18T17:45:05;0.50;;;0.50;;
59856;SDS011;45733;52.668;6.860;2023-03-18T17:47:40;0.50;;;0.50;;